Time;durP1;ratioP1;P1;durP2;ratioP2;P2;SDS_P1;SDS_P2;PMS_P1;PMS_P2;Temp;Humidity;BMP_temperature;BMP_pressure;BME280_temperature;BME280_humidity;BME280_pressure;Samples;Min_cycle;Max_cycle;Signal;HPM_P1;HPM_P2
2020/12/25 00:00:06;;;;;;;13.63;9.18;;;5.10;99.90;;;;;;5068768;28;20107;-62
2020/12/25 00:02:31;;;;;;;23.30;8.38;;;5.10;99.90;;;;;;5068914;28;20029;-63
2020/12/25 00:04:57;;;;;;;17.52;8.80;;;5.10;99.90;;;;;;5085899;28;20032;-64
2020/12/25 00:07:22;;;;;;;13.00;7.90;;;5.10;99.90;;;;;;5087086;28;20441;-64
2020/12/25 00:09:48;;;;;;;16.90;8.63;;;5.10;99.90;;;;;;5068894;28;20132;-62
2020/12/25 00:12:13;;;;;;;15.68;8.70;;;5.10;99.90;;;;;;5070275;28;20039;-63
2020/12/25 00:14:39;;;;;;;14.32;8.57;;;5.10;99.90;;;;;;5079374;28;20043;-64
2020/12/25 00:17:04;;;;;;;19.02;10.07;;;5.10;99.90;;;;;;5085749;28;20577;-63
2020/12/25 00:19:30;;;;;;;19.42;10.25;;;5.10;99.90;;;;;;5085571;28;20530;-60
2020/12/25 00:21:55;;;;;;;17.90;10.73;;;5.00;99.90;;;;;;5088630;28;20108;-62
2020/12/25 00:24:21;;;;;;;24.23;11.80;;;5.00;99.90;;;;;;5089103;28;20034;-62
2020/12/25 00:26:47;;;;;;;21.90;12.25;;;5.10;99.90;;;;;;5088343;28;20088;-62
2020/12/25 00:29:12;;;;;;;23.17;12.02;;;5.00;99.90;;;;;;5089392;28;20443;-62
2020/12/25 00:31:38;;;;;;;20.77;11.98;;;5.10;99.90;;;;;;5089368;28;20060;-62
2020/12/25 00:34:06;;;;;;;18.45;12.13;;;5.10;99.90;;;;;;5088839;28;20016;-61
2020/12/25 00:36:34;;;;;;;18.30;11.70;;;5.10;99.90;;;;;;5086477;28;20577;-62
2020/12/25 00:39:03;;;;;;;22.52;12.40;;;5.10;99.90;;;;;;5088441;28;20023;-62
2020/12/25 00:41:28;;;;;;;24.30;11.70;;;5.10;99.90;;;;;;5088518;28;20035;-63
2020/12/25 00:43:54;;;;;;;21.25;12.57;;;5.10;99.90;;;;;;5088763;28;20032;-62
2020/12/25 00:46:20;;;;;;;24.75;12.52;;;5.10;99.90;;;;;;5088007;28;20534;-62
2020/12/25 00:48:46;;;;;;;23.38;13.60;;;5.10;99.90;;;;;;5088708;28;20518;-62
2020/12/25 00:51:20;;;;;;;21.88;12.52;;;5.10;99.90;;;;;;5072807;28;20032;-62
2020/12/25 00:53:46;;;;;;;29.67;13.73;;;5.20;99.90;;;;;;5069175;28;20025;-62
2020/12/25 00:56:13;;;;;;;25.50;16.38;;;5.10;99.90;;;;;;5068554;28;20082;-61
2020/12/25 00:58:40;;;;;;;25.77;14.38;;;5.20;99.90;;;;;;5068268;28;20028;-63
2020/12/25 01:01:07;;;;;;;28.55;14.68;;;5.20;99.90;;;;;;5085360;28;20032;-62
2020/12/25 01:03:34;;;;;;;27.95;14.55;;;5.20;99.90;;;;;;5088036;28;20031;-65
2020/12/25 01:05:59;;;;;;;23.77;14.20;;;5.20;99.90;;;;;;5086720;28;20022;-63
2020/12/25 01:08:25;;;;;;;22.77;12.68;;;5.20;99.90;;;;;;5084774;28;20111;-63
2020/12/25 01:10:50;;;;;;;25.10;12.38;;;5.20;99.90;;;;;;5087540;28;20020;-64
2020/12/25 01:13:17;;;;;;;19.77;11.05;;;5.20;99.90;;;;;;5086093;28;20558;-64
2020/12/25 01:15:43;;;;;;;16.30;11.57;;;5.20;99.90;;;;;;5073668;28;20060;-63
2020/12/25 01:18:09;;;;;;;15.27;9.10;;;5.30;99.90;;;;;;5084493;28;20064;-63
2020/12/25 01:20:35;;;;;;;18.23;7.70;;;5.20;99.90;;;;;;5080985;28;20028;-63
2020/12/25 01:23:01;;;;;;;13.85;7.28;;;5.30;99.90;;;;;;5086396;28;20032;-63
2020/12/25 01:25:27;;;;;;;17.75;7.28;;;5.20;99.90;;;;;;5090665;28;20024;-62
2020/12/25 01:27:53;;;;;;;12.90;8.45;;;5.30;99.90;;;;;;5090705;28;20389;-63
2020/12/25 01:30:18;;;;;;;20.55;8.90;;;5.30;99.90;;;;;;5092570;28;20036;-62
2020/12/25 01:32:44;;;;;;;12.63;8.07;;;5.40;99.90;;;;;;5085107;28;20082;-62
2020/12/25 01:35:09;;;;;;;16.58;9.27;;;5.40;99.90;;;;;;5074597;28;20275;-63
2020/12/25 01:37:35;;;;;;;20.98;10.85;;;5.40;99.90;;;;;;5089311;28;20047;-64
2020/12/25 01:40:00;;;;;;;12.80;8.80;;;5.40;99.90;;;;;;5083966;28;20099;-62
2020/12/25 01:42:26;;;;;;;16.60;9.38;;;5.40;99.90;;;;;;5091721;28;20035;-62
2020/12/25 01:44:51;;;;;;;18.20;8.68;;;5.40;99.90;;;;;;5091910;28;20028;-63
2020/12/25 01:47:19;;;;;;;21.92;10.05;;;5.40;99.90;;;;;;5089802;28;20431;-63
2020/12/25 01:49:44;;;;;;;17.50;9.35;;;5.30;99.90;;;;;;5075891;28;20501;-64
2020/12/25 01:52:12;;;;;;;22.40;10.88;;;5.30;99.90;;;;;;5074552;28;20024;-63
2020/12/25 01:54:37;;;;;;;18.80;11.27;;;5.30;99.90;;;;;;5088922;28;20054;-63
2020/12/25 01:57:04;;;;;;;23.17;11.93;;;5.30;99.90;;;;;;5091627;28;20479;-64
2020/12/25 01:59:30;;;;;;;18.08;11.18;;;5.30;99.90;;;;;;5091742;28;20102;-64
2020/12/25 02:01:57;;;;;;;19.65;10.85;;;5.30;99.90;;;;;;5091037;28;20020;-64
2020/12/25 02:04:22;;;;;;;20.23;11.40;;;5.30;99.90;;;;;;5077110;28;20309;-63
2020/12/25 02:06:49;;;;;;;16.83;9.20;;;5.20;99.90;;;;;;5080010;28;20036;-63
2020/12/25 02:09:15;;;;;;;15.43;9.02;;;5.20;99.90;;;;;;5075800;28;20766;-64
2020/12/25 02:11:40;;;;;;;21.17;9.43;;;5.10;99.90;;;;;;5091991;28;20126;-64
2020/12/25 02:14:06;;;;;;;15.02;8.95;;;5.10;99.90;;;;;;5078354;28;20036;-62
2020/12/25 02:16:32;;;;;;;15.43;9.23;;;5.10;99.90;;;;;;5087884;28;20038;-62
2020/12/25 02:18:57;;;;;;;22.98;11.15;;;5.00;99.90;;;;;;5076385;28;20032;-63
2020/12/25 02:21:23;;;;;;;13.93;8.57;;;5.00;99.90;;;;;;5076110;28;20039;-64
2020/12/25 02:23:48;;;;;;;18.73;7.80;;;4.90;99.90;;;;;;5072699;28;20040;-63
2020/12/25 02:26:14;;;;;;;13.20;7.47;;;4.90;99.90;;;;;;5071864;28;20102;-63
2020/12/25 02:28:41;;;;;;;13.35;7.68;;;4.80;99.90;;;;;;5091208;28;20035;-64
2020/12/25 02:31:07;;;;;;;11.98;7.10;;;4.80;99.90;;;;;;5091041;28;20027;-63
2020/12/25 02:33:33;;;;;;;19.77;6.80;;;4.80;99.90;;;;;;5081587;28;20498;-63
2020/12/25 02:35:58;;;;;;;15.48;7.30;;;4.80;99.90;;;;;;5071303;28;20040;-63
2020/12/25 02:38:24;;;;;;;14.35;6.95;;;4.80;99.90;;;;;;5086013;28;20374;-63
2020/12/25 02:40:50;;;;;;;14.02;7.00;;;4.80;99.90;;;;;;5087719;28;20388;-64
2020/12/25 02:43:15;;;;;;;16.17;7.13;;;4.80;99.90;;;;;;5090874;28;20088;-64
2020/12/25 02:45:41;;;;;;;14.35;6.03;;;4.80;99.90;;;;;;5082188;28;20028;-63
2020/12/25 02:48:06;;;;;;;11.23;6.18;;;4.80;99.90;;;;;;5083068;28;20039;-63
2020/12/25 02:50:32;;;;;;;14.90;6.97;;;4.80;99.90;;;;;;5070858;28;20471;-62
2020/12/25 02:52:57;;;;;;;16.85;6.88;;;4.80;99.90;;;;;;5079977;28;20035;-63
2020/12/25 02:55:23;;;;;;;16.58;7.30;;;4.70;99.90;;;;;;5090254;28;20502;-63
2020/12/25 02:57:48;;;;;;;12.93;7.68;;;4.70;99.90;;;;;;5076952;28;20071;-64
2020/12/25 03:00:14;;;;;;;16.02;8.13;;;4.70;99.90;;;;;;5070446;28;20025;-63
2020/12/25 03:02:39;;;;;;;13.82;7.90;;;4.70;99.90;;;;;;5072390;28;20597;-64
2020/12/25 03:05:05;;;;;;;17.48;10.30;;;4.70;99.90;;;;;;5080430;28;20032;-63
2020/12/25 03:07:30;;;;;;;14.45;9.82;;;4.70;99.90;;;;;;5080634;28;20031;-64
2020/12/25 03:09:56;;;;;;;19.20;10.50;;;4.70;99.90;;;;;;5069939;28;20035;-64
2020/12/25 03:12:21;;;;;;;24.58;11.38;;;4.70;99.90;;;;;;5076682;28;20598;-63
2020/12/25 03:14:47;;;;;;;23.80;11.63;;;4.60;99.90;;;;;;5087140;28;20486;-64
2020/12/25 03:17:12;;;;;;;16.92;10.93;;;4.60;99.90;;;;;;5075630;28;20490;-64
2020/12/25 03:19:38;;;;;;;18.48;10.75;;;4.60;99.90;;;;;;5082118;28;20021;-64
2020/12/25 03:22:03;;;;;;;19.98;10.95;;;4.60;99.90;;;;;;5070774;28;20033;-64
2020/12/25 03:24:29;;;;;;;18.15;9.85;;;4.50;99.90;;;;;;5077159;28;20028;-63
2020/12/25 03:26:54;;;;;;;21.90;11.02;;;4.50;99.90;;;;;;5089409;28;20031;-63
2020/12/25 03:29:20;;;;;;;21.05;10.70;;;4.50;99.90;;;;;;5070896;28;20024;-62
2020/12/25 03:31:46;;;;;;;18.65;9.48;;;4.50;99.90;;;;;;5083500;28;20036;-61
2020/12/25 03:34:12;;;;;;;20.35;8.95;;;4.50;99.90;;;;;;5088183;28;20028;-62
2020/12/25 03:36:38;;;;;;;20.80;10.52;;;4.50;99.90;;;;;;5089734;28;20047;-63
2020/12/25 03:39:04;;;;;;;21.60;9.13;;;4.50;99.90;;;;;;5074599;28;20036;-64
2020/12/25 03:41:30;;;;;;;15.68;9.13;;;4.50;99.90;;;;;;5083324;28;20024;-63
2020/12/25 03:43:55;;;;;;;21.52;9.50;;;4.50;99.90;;;;;;5073564;28;20029;-63
2020/12/25 03:46:21;;;;;;;14.50;9.85;;;4.50;99.90;;;;;;5079744;28;20032;-64
2020/12/25 03:48:46;;;;;;;18.05;9.50;;;4.50;99.90;;;;;;5083419;28;20494;-63
2020/12/25 03:51:12;;;;;;;17.00;9.00;;;4.50;99.90;;;;;;5089556;28;20036;-63
2020/12/25 03:53:37;;;;;;;18.00;9.52;;;4.60;99.90;;;;;;5079219;28;20462;-63
2020/12/25 03:56:04;;;;;;;16.08;9.45;;;4.60;99.90;;;;;;5082146;28;20024;-63
2020/12/25 03:58:29;;;;;;;21.70;8.93;;;4.60;99.90;;;;;;5087606;28;20059;-63
2020/12/25 04:00:55;;;;;;;14.10;8.07;;;4.60;99.90;;;;;;5089390;28;20060;-63
2020/12/25 04:03:20;;;;;;;20.65;8.57;;;4.60;99.90;;;;;;5080397;28;20043;-63
2020/12/25 04:05:46;;;;;;;16.90;8.63;;;4.60;99.90;;;;;;5088758;28;20044;-63
2020/12/25 04:08:11;;;;;;;16.10;8.02;;;4.60;99.90;;;;;;5088660;28;20108;-63
2020/12/25 04:10:37;;;;;;;14.68;7.43;;;4.60;99.90;;;;;;5069090;28;20381;-62
2020/12/25 04:13:05;;;;;;;14.98;6.47;;;4.60;99.90;;;;;;5075069;28;20495;-64
2020/12/25 04:15:30;;;;;;;21.98;8.77;;;4.60;99.90;;;;;;5073629;28;20031;-64
2020/12/25 04:17:56;;;;;;;18.27;7.20;;;4.60;99.90;;;;;;5068915;28;20025;-63
2020/12/25 04:20:21;;;;;;;16.23;7.53;;;4.60;99.90;;;;;;5081270;28;20053;-63
2020/12/25 04:22:47;;;;;;;14.35;6.30;;;4.60;99.90;;;;;;5086544;28;20032;-62
2020/12/25 04:25:12;;;;;;;16.33;6.68;;;4.60;99.90;;;;;;5086096;28;20028;-64
2020/12/25 04:27:38;;;;;;;12.75;5.80;;;4.60;99.90;;;;;;5071764;28;20115;-63
2020/12/25 04:30:04;;;;;;;15.38;5.97;;;4.50;99.90;;;;;;5068659;28;20034;-62
2020/12/25 04:32:29;;;;;;;12.98;6.22;;;4.60;99.90;;;;;;5070117;28;20039;-63
2020/12/25 04:34:55;;;;;;;13.63;6.03;;;4.50;99.90;;;;;;5069899;28;20553;-62
2020/12/25 04:37:20;;;;;;;21.05;6.28;;;4.50;99.90;;;;;;5085739;28;20036;-62
2020/12/25 04:39:46;;;;;;;16.70;6.07;;;4.50;99.90;;;;;;5068999;28;20047;-63
2020/12/25 04:42:11;;;;;;;14.18;6.07;;;4.50;99.90;;;;;;5068418;28;20024;-63
2020/12/25 04:44:37;;;;;;;18.48;6.30;;;4.60;99.90;;;;;;5069464;28;20036;-63
2020/12/25 04:47:11;;;;;;;15.20;5.75;;;4.50;99.90;;;;;;5071147;28;20036;-63
2020/12/25 04:49:39;;;;;;;15.15;5.95;;;4.50;99.90;;;;;;5072278;28;20442;-64
2020/12/25 04:52:05;;;;;;;15.25;6.47;;;4.50;99.90;;;;;;5088590;28;20032;-63
2020/12/25 04:54:31;;;;;;;14.85;5.38;;;4.50;99.90;;;;;;5073680;28;20081;-63
2020/12/25 04:56:58;;;;;;;20.25;5.43;;;4.50;99.90;;;;;;5088313;28;20043;-63
2020/12/25 04:59:26;;;;;;;17.85;5.47;;;4.50;99.90;;;;;;5087753;28;20032;-63
2020/12/25 05:01:53;;;;;;;22.15;6.38;;;4.40;99.90;;;;;;5087969;28;20047;-63
2020/12/25 05:04:19;;;;;;;13.40;4.85;;;4.40;99.90;;;;;;5070881;28;20028;-64
2020/12/25 05:06:49;;;;;;;16.75;5.32;;;4.40;99.90;;;;;;5085637;28;20026;-63
2020/12/25 05:09:16;;;;;;;27.98;5.60;;;4.30;99.90;;;;;;5084752;28;20024;-63
2020/12/25 05:11:42;;;;;;;24.05;6.65;;;4.30;99.90;;;;;;5088208;28;20403;-62
2020/12/25 05:14:08;;;;;;;19.88;5.50;;;4.20;99.90;;;;;;5088290;28;20040;-63
2020/12/25 05:16:34;;;;;;;14.98;6.30;;;4.20;99.90;;;;;;5072029;28;20447;-63
2020/12/25 05:19:00;;;;;;;19.40;6.65;;;4.10;99.90;;;;;;5078524;28;20036;-64
2020/12/25 05:21:26;;;;;;;23.08;6.95;;;4.10;99.90;;;;;;5068299;28;20046;-64
2020/12/25 05:23:53;;;;;;;24.52;7.85;;;4.10;99.90;;;;;;5072243;28;20029;-64
2020/12/25 05:26:19;;;;;;;13.80;5.13;;;4.10;99.90;;;;;;5081823;28;20499;-64
2020/12/25 05:28:47;;;;;;;21.98;6.60;;;4.10;99.90;;;;;;5080005;28;20098;-64
2020/12/25 05:31:13;;;;;;;14.05;6.13;;;4.00;99.90;;;;;;5067795;28;20040;-64
2020/12/25 05:33:39;;;;;;;19.08;5.30;;;4.00;99.90;;;;;;5078184;28;20028;-64
2020/12/25 05:36:10;;;;;;;14.45;5.30;;;3.90;99.90;;;;;;5088481;28;20028;-61
2020/12/25 05:38:37;;;;;;;29.23;5.43;;;3.90;99.90;;;;;;5083550;28;20409;-63
2020/12/25 05:41:05;;;;;;;24.30;5.53;;;3.90;99.90;;;;;;5088119;28;20032;-63
2020/12/25 05:43:31;;;;;;;20.05;5.53;;;3.90;99.90;;;;;;5084152;28;20100;-63
2020/12/25 05:45:57;;;;;;;17.92;5.60;;;3.80;99.90;;;;;;5083329;28;20027;-62
2020/12/25 05:48:22;;;;;;;20.70;5.70;;;3.80;99.90;;;;;;5076936;28;20028;-63
2020/12/25 05:50:49;;;;;;;23.42;7.07;;;3.80;99.90;;;;;;5076811;28;20051;-64
2020/12/25 05:53:14;;;;;;;15.52;6.63;;;3.80;99.90;;;;;;5075650;28;20697;-63
2020/12/25 05:55:40;;;;;;;26.08;5.10;;;3.80;99.90;;;;;;5085693;28;20032;-64
2020/12/25 05:58:06;;;;;;;20.88;5.25;;;3.70;99.90;;;;;;5081470;28;20483;-64
2020/12/25 06:00:33;;;;;;;21.08;4.75;;;3.70;99.90;;;;;;5072261;28;20464;-63
2020/12/25 06:02:59;;;;;;;15.65;5.15;;;3.70;99.90;;;;;;5073184;28;20030;-63
2020/12/25 06:05:26;;;;;;;13.65;4.07;;;3.60;99.90;;;;;;5091636;28;20432;-63
2020/12/25 06:07:53;;;;;;;13.00;3.53;;;3.60;99.90;;;;;;5090760;28;20085;-64
2020/12/25 06:10:20;;;;;;;21.65;3.72;;;3.50;99.90;;;;;;5089303;28;20032;-64
2020/12/25 06:12:46;;;;;;;22.77;5.30;;;3.40;99.90;;;;;;5091022;28;20078;-63
2020/12/25 06:15:30;;;;;;;18.70;4.47;;;3.40;99.90;;;;;;5073143;28;20067;-63
2020/12/25 06:18:35;;;;;;;13.90;3.28;;;3.40;99.90;;;;;;5091636;28;20093;-63
2020/12/25 06:21:24;;;;;;;20.70;4.45;;;3.40;99.90;;;;;;5091012;28;20089;-63
2020/12/25 06:23:50;;;;;;;21.35;4.65;;;3.30;99.90;;;;;;5075865;28;20074;-62
2020/12/25 06:26:18;;;;;;;19.55;4.13;;;3.30;99.90;;;;;;5084149;28;20094;-61
2020/12/25 06:28:44;;;;;;;12.90;4.05;;;3.30;99.90;;;;;;5075092;28;20043;-63
2020/12/25 06:31:29;;;;;;;15.13;3.90;;;3.20;99.90;;;;;;5074524;28;20424;-63
2020/12/25 06:33:54;;;;;;;18.90;4.22;;;3.20;99.90;;;;;;5079432;28;20035;-63
2020/12/25 06:36:30;;;;;;;11.07;3.63;;;3.20;99.90;;;;;;5091085;28;20061;-64
2020/12/25 06:38:59;;;;;;;15.50;4.18;;;3.30;99.90;;;;;;5076727;28;20135;-63
2020/12/25 06:41:28;;;;;;;17.65;4.70;;;3.30;99.90;;;;;;5071924;28;20067;-62
2020/12/25 06:43:55;;;;;;;20.95;4.63;;;3.30;99.90;;;;;;5082258;28;20387;-63
2020/12/25 06:46:29;;;;;;;18.67;3.75;;;3.30;99.90;;;;;;5085556;28;20956;-64
2020/12/25 06:48:59;;;;;;;18.98;4.68;;;3.30;99.90;;;;;;5090447;28;20032;-63
2020/12/25 06:51:26;;;;;;;11.70;4.07;;;3.40;99.90;;;;;;5087499;28;20070;-63
2020/12/25 06:53:56;;;;;;;17.52;3.90;;;3.40;99.90;;;;;;5088645;28;20032;-64
2020/12/25 06:56:21;;;;;;;18.20;4.50;;;3.50;99.90;;;;;;5082855;28;20035;-63
2020/12/25 06:58:54;;;;;;;21.98;4.72;;;3.40;99.90;;;;;;5090476;28;20027;-64
2020/12/25 07:01:38;;;;;;;15.68;4.40;;;3.50;99.90;;;;;;5090601;28;20035;-64
2020/12/25 07:04:04;;;;;;;13.05;4.38;;;3.40;99.90;;;;;;5087126;28;20485;-64
2020/12/25 07:06:31;;;;;;;14.60;3.92;;;3.50;99.90;;;;;;5089496;28;20038;-64
2020/12/25 07:09:09;;;;;;;22.15;4.63;;;3.50;99.90;;;;;;5090484;28;20020;-63
2020/12/25 07:11:35;;;;;;;22.98;4.80;;;3.50;99.90;;;;;;5089274;28;20028;-63
2020/12/25 07:14:01;;;;;;;16.38;4.70;;;3.40;99.90;;;;;;5075134;28;20028;-63
2020/12/25 07:16:27;;;;;;;25.05;5.25;;;3.40;99.90;;;;;;5086934;28;20038;-63
2020/12/25 07:18:52;;;;;;;13.45;4.05;;;3.30;99.90;;;;;;5088440;28;20107;-63
2020/12/25 07:21:18;;;;;;;19.73;4.45;;;3.20;99.90;;;;;;5079075;28;20387;-63
2020/12/25 07:23:44;;;;;;;22.48;4.22;;;3.20;99.90;;;;;;5089055;28;20035;-63
2020/12/25 07:26:10;;;;;;;18.80;4.88;;;3.30;99.90;;;;;;5074894;28;20103;-61
2020/12/25 07:28:37;;;;;;;16.95;4.40;;;3.30;99.90;;;;;;5075503;28;20142;-64
2020/12/25 07:31:03;;;;;;;18.08;4.35;;;3.20;99.90;;;;;;5089718;28;20039;-63
2020/12/25 07:33:28;;;;;;;16.63;4.28;;;3.20;99.90;;;;;;5079445;28;20040;-64
2020/12/25 07:35:54;;;;;;;22.13;4.68;;;3.30;99.90;;;;;;5076167;28;20032;-63
2020/12/25 07:38:20;;;;;;;23.20;5.93;;;3.30;99.90;;;;;;5078216;28;20123;-62
2020/12/25 07:40:46;;;;;;;19.25;4.93;;;3.30;99.90;;;;;;5089496;28;20032;-64
2020/12/25 07:43:13;;;;;;;22.42;5.43;;;3.30;99.90;;;;;;5086702;28;20059;-63
2020/12/25 07:45:39;;;;;;;15.13;4.20;;;3.30;99.90;;;;;;5068904;28;20078;-63
2020/12/25 07:48:06;;;;;;;19.33;5.05;;;3.40;99.90;;;;;;5078446;28;20020;-63
2020/12/25 07:50:40;;;;;;;15.88;4.10;;;3.40;99.90;;;;;;5073996;28;20035;-63
2020/12/25 07:53:12;;;;;;;22.27;3.83;;;3.40;99.90;;;;;;5074948;28;20593;-63
2020/12/25 07:55:39;;;;;;;24.92;4.78;;;3.40;99.90;;;;;;5088959;28;20075;-63
2020/12/25 07:58:05;;;;;;;21.23;3.88;;;3.50;99.90;;;;;;5072903;28;20115;-63
2020/12/25 08:00:31;;;;;;;20.17;3.83;;;3.50;99.90;;;;;;5068914;28;20029;-63
2020/12/25 08:02:58;;;;;;;12.50;3.47;;;3.50;99.90;;;;;;5084317;28;20028;-63
2020/12/25 08:05:26;;;;;;;11.90;3.67;;;3.50;99.90;;;;;;5077946;28;20031;-63
2020/12/25 08:07:52;;;;;;;24.05;4.07;;;3.50;99.90;;;;;;5071712;28;20032;-64
2020/12/25 08:10:18;;;;;;;24.63;3.97;;;3.50;99.90;;;;;;5087348;28;20040;-64
2020/12/25 08:12:51;;;;;;;28.50;3.67;;;3.60;99.90;;;;;;5085518;28;20119;-63
2020/12/25 08:15:19;;;;;;;13.43;4.00;;;3.60;99.90;;;;;;5069234;28;20503;-63
2020/12/25 08:17:49;;;;;;;14.85;3.42;;;3.60;99.90;;;;;;5081216;28;20040;-63
2020/12/25 08:20:15;;;;;;;10.23;3.25;;;3.60;99.90;;;;;;5077363;28;20442;-63
2020/12/25 08:22:40;;;;;;;12.77;2.83;;;3.60;99.90;;;;;;5073241;28;20341;-63
2020/12/25 08:25:06;;;;;;;12.02;3.88;;;3.60;99.90;;;;;;5069023;28;20029;-63
2020/12/25 08:27:33;;;;;;;13.90;3.20;;;3.70;99.90;;;;;;5084997;28;20036;-63
2020/12/25 08:30:01;;;;;;;14.80;3.13;;;3.70;99.90;;;;;;5078583;28;20032;-64
2020/12/25 08:32:29;;;;;;;13.98;3.28;;;3.60;99.90;;;;;;5083192;28;20063;-63
2020/12/25 08:35:15;;;;;;;11.55;2.38;;;3.60;99.90;;;;;;5080833;28;20047;-64
2020/12/25 08:37:58;;;;;;;9.98;2.55;;;3.50;99.90;;;;;;5084821;28;20012;-64
2020/12/25 08:40:24;;;;;;;6.25;2.58;;;3.50;99.90;;;;;;5068840;28;20032;-60
2020/12/25 08:42:51;;;;;;;11.77;2.45;;;3.50;99.90;;;;;;5071671;28;20021;-60
2020/12/25 08:45:21;;;;;;;11.68;3.28;;;3.50;99.90;;;;;;5070760;28;20021;-60
2020/12/25 08:48:03;;;;;;;11.93;3.08;;;3.60;99.90;;;;;;5070918;28;20025;-60
2020/12/25 08:50:29;;;;;;;17.65;2.40;;;3.60;99.90;;;;;;5071352;28;20035;-59
2020/12/25 08:53:16;;;;;;;10.32;2.40;;;3.60;99.90;;;;;;5081484;28;20028;-60
2020/12/25 08:55:42;;;;;;;10.00;2.50;;;3.60;99.90;;;;;;5088250;28;20016;-59
2020/12/25 08:58:08;;;;;;;11.88;3.30;;;3.50;99.90;;;;;;5083687;28;20054;-60
2020/12/25 09:00:33;;;;;;;8.35;2.40;;;3.60;99.90;;;;;;5081685;28;20023;-60
2020/12/25 09:02:59;;;;;;;9.65;2.63;;;3.60;99.90;;;;;;5075685;28;20468;-60
2020/12/25 09:05:25;;;;;;;12.60;2.65;;;3.60;99.90;;;;;;5086669;28;20030;-60
2020/12/25 09:07:50;;;;;;;17.05;3.63;;;3.60;99.90;;;;;;5087366;28;20036;-60
2020/12/25 09:10:16;;;;;;;10.13;2.45;;;3.60;99.90;;;;;;5073696;28;20032;-59
2020/12/25 09:12:42;;;;;;;10.80;2.50;;;3.50;99.90;;;;;;5080251;28;20056;-58
2020/12/25 09:15:08;;;;;;;16.73;2.33;;;3.60;99.90;;;;;;5082977;28;20574;-60
2020/12/25 09:17:34;;;;;;;11.20;3.25;;;3.60;99.90;;;;;;5078179;28;20085;-59
2020/12/25 09:19:59;;;;;;;16.75;2.78;;;3.70;99.90;;;;;;5080555;28;20031;-60
2020/12/25 09:22:25;;;;;;;15.45;2.85;;;3.80;99.90;;;;;;5088505;28;20024;-60
2020/12/25 09:24:50;;;;;;;11.70;2.65;;;3.80;99.90;;;;;;5070930;28;20063;-59
2020/12/25 09:27:16;;;;;;;10.43;2.67;;;3.90;99.90;;;;;;5067835;28;20031;-60
2020/12/25 09:29:41;;;;;;;11.13;2.63;;;4.00;99.90;;;;;;5074274;28;20024;-60
2020/12/25 09:32:07;;;;;;;12.13;2.88;;;4.00;99.90;;;;;;5078066;28;20627;-60
2020/12/25 09:34:33;;;;;;;11.95;2.75;;;4.10;99.90;;;;;;5071145;28;20048;-60
2020/12/25 09:36:58;;;;;;;12.80;2.58;;;4.10;99.90;;;;;;5081031;28;20383;-60
2020/12/25 09:39:24;;;;;;;13.32;2.30;;;4.20;99.90;;;;;;5091067;28;20483;-60
2020/12/25 09:41:49;;;;;;;18.00;3.45;;;4.30;99.90;;;;;;5083022;28;20391;-60
2020/12/25 09:44:15;;;;;;;7.68;2.15;;;4.30;99.90;;;;;;5074930;28;20054;-59
2020/12/25 09:46:41;;;;;;;8.00;2.40;;;4.30;99.90;;;;;;5078575;28;20104;-59
2020/12/25 09:49:06;;;;;;;13.80;3.05;;;4.30;99.90;;;;;;5090715;28;20052;-60
2020/12/25 09:51:32;;;;;;;17.90;2.40;;;4.30;99.90;;;;;;5080875;28;20063;-60
2020/12/25 09:53:58;;;;;;;11.52;2.25;;;4.30;99.90;;;;;;5080352;28;20042;-57
2020/12/25 09:56:23;;;;;;;15.50;3.70;;;4.30;99.90;;;;;;5080583;28;20117;-57
2020/12/25 09:58:49;;;;;;;8.20;2.28;;;4.30;99.90;;;;;;5081245;28;20425;-59
2020/12/25 10:01:14;;;;;;;13.20;2.55;;;4.30;99.90;;;;;;5075800;28;20036;-59
2020/12/25 10:03:40;;;;;;;7.82;2.40;;;4.30;99.90;;;;;;5073600;28;20028;-59
2020/12/25 10:06:05;;;;;;;13.63;2.25;;;4.30;99.90;;;;;;5081169;28;20063;-59
2020/12/25 10:08:31;;;;;;;13.60;2.58;;;4.40;99.90;;;;;;5080769;28;20657;-60
2020/12/25 10:10:56;;;;;;;15.02;3.28;;;4.40;99.90;;;;;;5074857;28;20044;-59
2020/12/25 10:13:23;;;;;;;11.80;2.53;;;4.40;99.90;;;;;;5082398;28;20115;-59
2020/12/25 10:15:49;;;;;;;7.10;2.83;;;4.50;99.90;;;;;;5083643;28;20624;-60
2020/12/25 10:18:15;;;;;;;8.65;3.00;;;4.60;99.90;;;;;;5074801;28;20123;-58
2020/12/25 10:20:40;;;;;;;8.48;2.35;;;4.60;99.90;;;;;;5077396;28;20494;-60
2020/12/25 10:23:06;;;;;;;12.77;3.50;;;4.60;99.90;;;;;;5082154;28;20386;-60
2020/12/25 10:25:31;;;;;;;13.68;3.38;;;4.50;99.90;;;;;;5075688;28;20054;-59
2020/12/25 10:27:58;;;;;;;16.42;4.90;;;4.50;99.90;;;;;;5077845;28;20043;-59
2020/12/25 10:30:23;;;;;;;17.85;6.18;;;4.50;99.90;;;;;;5088289;28;20032;-59
2020/12/25 10:32:49;;;;;;;25.40;7.63;;;4.50;99.90;;;;;;5078774;28;20032;-60
2020/12/25 10:35:14;;;;;;;14.85;5.47;;;4.50;99.90;;;;;;5078778;28;20035;-60
2020/12/25 10:37:40;;;;;;;15.75;5.70;;;4.60;99.90;;;;;;5075994;28;20371;-60
2020/12/25 10:40:06;;;;;;;20.85;5.45;;;4.70;99.90;;;;;;5080863;28;20446;-58
2020/12/25 10:42:31;;;;;;;19.15;5.78;;;4.70;99.90;;;;;;5075491;28;20082;-60
2020/12/25 10:44:57;;;;;;;15.95;5.93;;;4.80;99.90;;;;;;5072266;28;20043;-59
2020/12/25 10:47:22;;;;;;;23.80;7.05;;;4.80;99.90;;;;;;5080915;28;20437;-60
2020/12/25 10:49:48;;;;;;;14.18;5.50;;;4.90;99.90;;;;;;5089393;28;20020;-60
2020/12/25 10:52:13;;;;;;;17.13;6.03;;;4.90;99.90;;;;;;5085886;28;20085;-59
2020/12/25 10:54:39;;;;;;;18.45;7.63;;;4.90;99.90;;;;;;5078472;28;20035;-60
2020/12/25 10:57:04;;;;;;;18.95;9.25;;;4.90;99.90;;;;;;5079512;28;20025;-59
2020/12/25 10:59:30;;;;;;;17.88;7.03;;;4.90;99.90;;;;;;5078047;28;20033;-59
2020/12/25 11:01:56;;;;;;;13.95;6.07;;;5.00;99.90;;;;;;5074961;28;20036;-59
2020/12/25 11:04:21;;;;;;;17.65;5.90;;;5.00;99.90;;;;;;5076162;28;20034;-58
2020/12/25 11:06:48;;;;;;;16.50;5.72;;;4.90;99.90;;;;;;5080198;28;20028;-59
2020/12/25 11:09:14;;;;;;;18.20;4.07;;;4.90;99.90;;;;;;5083998;28;20024;-60
2020/12/25 11:11:40;;;;;;;15.52;4.22;;;4.90;99.90;;;;;;5080654;28;20098;-60
2020/12/25 11:14:06;;;;;;;17.33;5.35;;;4.90;99.90;;;;;;5073578;28;20652;-59
2020/12/25 11:16:36;;;;;;;13.98;4.55;;;4.90;99.90;;;;;;5082270;28;20020;-59
2020/12/25 11:19:05;;;;;;;15.13;4.72;;;5.00;99.90;;;;;;5082300;28;20024;-59
2020/12/25 11:21:32;;;;;;;14.57;4.65;;;5.00;99.90;;;;;;5094954;28;20024;-60
2020/12/25 11:23:59;;;;;;;12.80;4.80;;;5.00;99.90;;;;;;5082920;28;20648;-60
2020/12/25 11:26:33;;;;;;;15.70;5.05;;;5.00;99.90;;;;;;5071831;28;20028;-60
2020/12/25 11:29:01;;;;;;;17.40;5.35;;;5.00;99.90;;;;;;5082736;28;20596;-60
2020/12/25 11:31:27;;;;;;;15.15;5.35;;;5.00;99.90;;;;;;5082246;28;20075;-59
2020/12/25 11:33:54;;;;;;;17.55;5.40;;;5.00;99.90;;;;;;5085109;28;20063;-59
2020/12/25 11:36:22;;;;;;;16.08;7.15;;;5.00;99.90;;;;;;5072979;28;20035;-60
2020/12/25 11:38:48;;;;;;;15.25;6.43;;;5.00;99.90;;;;;;5073062;28;20025;-60
2020/12/25 11:41:16;;;;;;;15.82;6.28;;;5.00;99.90;;;;;;5077274;28;20036;-60
2020/12/25 11:43:43;;;;;;;14.10;6.47;;;5.10;99.90;;;;;;5089337;28;20410;-60
2020/12/25 11:46:09;;;;;;;19.83;7.63;;;5.20;99.90;;;;;;5088111;28;20059;-60
2020/12/25 11:48:35;;;;;;;17.15;6.85;;;5.30;99.90;;;;;;5074537;28;20733;-60
2020/12/25 11:51:01;;;;;;;22.92;7.88;;;5.30;99.90;;;;;;5071973;28;20029;-60
2020/12/25 11:53:27;;;;;;;17.48;7.22;;;5.40;99.90;;;;;;5081083;28;20039;-59
2020/12/25 11:55:54;;;;;;;17.05;6.50;;;5.50;99.90;;;;;;5076644;28;20804;-59
2020/12/25 11:58:19;;;;;;;9.15;4.47;;;5.50;99.90;;;;;;5076157;28;20497;-58
2020/12/25 12:00:45;;;;;;;8.32;4.03;;;5.40;99.90;;;;;;5076440;28;20027;-58
2020/12/25 12:03:11;;;;;;;14.68;4.72;;;5.40;99.90;;;;;;5076623;28;20066;-58
2020/12/25 12:05:44;;;;;;;10.90;4.47;;;5.40;99.90;;;;;;5082248;28;20044;-59
2020/12/25 12:08:13;;;;;;;12.40;3.05;;;5.40;99.90;;;;;;5081198;28;20051;-59
2020/12/25 12:10:39;;;;;;;13.25;3.13;;;5.40;99.90;;;;;;5057116;28;20039;-60
2020/12/25 12:13:05;;;;;;;10.75;3.03;;;5.40;99.90;;;;;;5070272;28;20503;-58
2020/12/25 12:15:39;;;;;;;15.20;2.90;;;5.40;99.90;;;;;;5074427;28;20701;-59
2020/12/25 12:18:06;;;;;;;15.40;2.85;;;5.40;99.90;;;;;;5075174;28;20948;-58
2020/12/25 12:20:33;;;;;;;6.25;1.73;;;5.40;99.90;;;;;;5064217;28;20028;-58
2020/12/25 12:23:00;;;;;;;8.88;1.80;;;5.50;99.90;;;;;;5066054;28;20078;-57
2020/12/25 12:25:27;;;;;;;12.32;2.15;;;5.50;99.90;;;;;;5074358;28;20063;-58
2020/12/25 12:27:53;;;;;;;12.75;2.13;;;5.50;99.90;;;;;;5073819;28;20028;-58
2020/12/25 12:30:19;;;;;;;11.82;2.90;;;5.50;99.90;;;;;;5076932;28;20031;-58
2020/12/25 12:32:45;;;;;;;14.10;2.75;;;5.50;99.90;;;;;;5076156;28;20028;-57
2020/12/25 12:35:11;;;;;;;10.65;2.63;;;5.60;99.90;;;;;;5082597;28;20027;-57
2020/12/25 12:37:38;;;;;;;14.15;3.58;;;5.60;99.90;;;;;;5080163;28;20062;-58
2020/12/25 12:40:04;;;;;;;17.45;2.45;;;5.70;99.90;;;;;;5077577;28;20029;-57
2020/12/25 12:42:34;;;;;;;14.13;2.03;;;5.70;99.90;;;;;;5076422;28;20089;-58